Time;durP1;ratioP1;P1;durP2;ratioP2;P2;SDS_P1;SDS_P2;PMS_P1;PMS_P2;Temp;Humidity;BMP_temperature;BMP_pressure;BME280_temperature;BME280_humidity;BME280_pressure;Samples;Min_cycle;Max_cycle;Signal;HPM_P1;HPM_P2
2021/07/22 00:00:09;;;;;;;7.97;6.38;;;18.50;91.70;;;;;;5033168;28;20030;-46
2021/07/22 00:02:35;;;;;;;9.55;6.15;;;18.40;92.10;;;;;;5032927;28;20518;-45
2021/07/22 00:05:00;;;;;;;7.70;5.80;;;18.40;92.20;;;;;;5032470;28;20080;-47
2021/07/22 00:07:26;;;;;;;8.73;6.10;;;18.40;92.00;;;;;;5033103;28;20049;-45
2021/07/22 00:09:51;;;;;;;6.97;5.78;;;18.40;92.20;;;;;;5032827;28;20026;-46
2021/07/22 00:12:17;;;;;;;6.82;5.47;;;18.30;92.30;;;;;;5034172;28;20032;-49
2021/07/22 00:14:42;;;;;;;8.18;6.32;;;18.20;92.40;;;;;;5032771;28;20108;-45
2021/07/22 00:17:08;;;;;;;11.88;5.82;;;18.20;92.50;;;;;;5032780;28;20479;-46
2021/07/22 00:19:35;;;;;;;7.80;5.70;;;18.20;92.60;;;;;;5032704;28;20032;-48
2021/07/22 00:22:01;;;;;;;12.77;6.47;;;18.20;92.70;;;;;;5032612;28;20112;-50
2021/07/22 00:24:27;;;;;;;7.63;6.18;;;18.10;92.80;;;;;;5031469;28;20390;-45
2021/07/22 00:26:53;;;;;;;12.27;6.13;;;18.10;92.90;;;;;;5032692;28;20029;-46
2021/07/22 00:29:19;;;;;;;19.42;5.65;;;18.00;93.00;;;;;;5032430;28;20048;-50
2021/07/22 00:31:44;;;;;;;14.98;6.03;;;18.00;93.10;;;;;;5032554;28;20483;-44
2021/07/22 00:34:10;;;;;;;11.32;6.25;;;18.00;93.20;;;;;;5032571;28;20340;-45
2021/07/22 00:36:35;;;;;;;10.95;6.32;;;18.00;93.30;;;;;;5032657;28;20080;-47
2021/07/22 00:39:01;;;;;;;10.52;6.57;;;17.90;93.50;;;;;;5032659;28;20025;-45
2021/07/22 00:41:27;;;;;;;11.70;6.72;;;17.90;93.50;;;;;;5032436;28;20523;-47
2021/07/22 00:43:53;;;;;;;7.38;5.78;;;17.90;93.60;;;;;;5014047;28;20024;-47
2021/07/22 00:46:18;;;;;;;9.75;5.85;;;17.80;93.60;;;;;;5032309;28;20026;-46
2021/07/22 00:48:44;;;;;;;10.38;6.80;;;17.80;93.70;;;;;;5032441;28;20029;-49
2021/07/22 00:51:09;;;;;;;13.95;7.72;;;17.80;93.80;;;;;;5032419;28;20026;-48
2021/07/22 00:53:35;;;;;;;6.82;6.07;;;17.80;93.80;;;;;;5032204;28;20509;-48
2021/07/22 00:56:02;;;;;;;7.75;6.00;;;17.80;93.90;;;;;;5032129;28;20083;-47
2021/07/22 00:58:27;;;;;;;9.50;5.68;;;17.70;94.00;;;;;;5032065;28;20034;-51
2021/07/22 01:00:53;;;;;;;8.00;6.35;;;17.70;94.40;;;;;;5031780;28;20041;-45
2021/07/22 01:03:19;;;;;;;6.93;5.85;;;17.70;94.30;;;;;;5032268;28;20083;-47
2021/07/22 01:05:44;;;;;;;8.45;5.68;;;17.60;94.30;;;;;;5031833;28;20087;-48
2021/07/22 01:08:10;;;;;;;11.80;6.07;;;17.60;94.50;;;;;;5031937;28;20026;-47
2021/07/22 01:10:35;;;;;;;8.90;6.03;;;17.60;94.50;;;;;;5031773;28;20501;-49
2021/07/22 01:13:01;;;;;;;10.85;6.05;;;17.60;94.60;;;;;;5031941;28;20025;-46
2021/07/22 01:15:27;;;;;;;10.00;6.28;;;17.50;94.60;;;;;;5031721;28;20080;-45
2021/07/22 01:17:52;;;;;;;8.35;6.47;;;17.60;94.70;;;;;;5032218;28;20044;-45
2021/07/22 01:20:19;;;;;;;12.15;6.40;;;17.50;94.80;;;;;;5031635;28;20029;-46
2021/07/22 01:22:46;;;;;;;9.32;6.15;;;17.50;95.00;;;;;;5014114;28;20036;-45
2021/07/22 01:25:13;;;;;;;8.68;6.40;;;17.40;95.10;;;;;;5031596;28;20025;-49
2021/07/22 01:27:39;;;;;;;9.85;6.72;;;17.40;95.30;;;;;;5013946;28;20033;-48
2021/07/22 01:30:05;;;;;;;8.23;5.93;;;17.30;95.40;;;;;;5031241;28;20087;-46
2021/07/22 01:32:31;;;;;;;10.65;6.35;;;17.30;95.50;;;;;;5031725;28;20032;-45
2021/07/22 01:34:57;;;;;;;6.57;5.47;;;17.30;95.60;;;;;;5031362;28;20025;-44
2021/07/22 01:37:22;;;;;;;11.90;5.97;;;17.30;95.70;;;;;;5031506;28;20064;-48
2021/07/22 01:39:48;;;;;;;9.52;6.25;;;17.20;95.70;;;;;;5031454;28;20095;-45
2021/07/22 01:42:13;;;;;;;8.63;5.72;;;17.20;95.90;;;;;;5031413;28;20025;-46
2021/07/22 01:44:39;;;;;;;11.38;6.20;;;17.30;95.90;;;;;;5030882;28;20079;-48
2021/07/22 01:47:05;;;;;;;7.45;5.50;;;17.30;95.90;;;;;;5031332;28;20029;-45
2021/07/22 01:49:31;;;;;;;7.68;5.85;;;17.30;96.00;;;;;;5031107;28;20028;-52
2021/07/22 01:51:59;;;;;;;11.98;6.30;;;17.30;96.10;;;;;;5031275;28;20021;-47
2021/07/22 01:54:24;;;;;;;9.07;5.70;;;17.30;96.20;;;;;;5031479;28;20090;-51
2021/07/22 01:56:50;;;;;;;13.20;6.82;;;17.20;96.20;;;;;;5031193;28;20029;-47
2021/07/22 01:59:15;;;;;;;12.43;5.90;;;17.20;96.30;;;;;;5030765;28;20029;-45
2021/07/22 02:01:41;;;;;;;11.27;6.70;;;17.20;96.40;;;;;;5031093;28;20060;-45
2021/07/22 02:04:06;;;;;;;8.80;6.55;;;17.20;96.40;;;;;;5030927;28;20082;-50
2021/07/22 02:06:32;;;;;;;7.80;5.93;;;17.20;96.50;;;;;;5031098;28;20100;-46
2021/07/22 02:08:57;;;;;;;8.65;6.15;;;17.20;96.50;;;;;;5030843;28;20500;-47
2021/07/22 02:11:24;;;;;;;8.27;6.53;;;17.20;96.60;;;;;;5030957;28;20025;-48
2021/07/22 02:13:49;;;;;;;9.07;6.63;;;17.20;96.60;;;;;;5031072;28;20108;-47
2021/07/22 02:16:15;;;;;;;12.02;5.93;;;17.20;96.70;;;;;;5031245;28;20116;-47
2021/07/22 02:18:41;;;;;;;8.70;6.82;;;17.20;96.70;;;;;;5012941;28;20031;-46
2021/07/22 02:21:07;;;;;;;10.88;6.30;;;17.20;96.70;;;;;;5031024;28;20032;-46
2021/07/22 02:23:33;;;;;;;7.95;6.20;;;17.10;96.80;;;;;;5031084;28;20117;-46
2021/07/22 02:26:02;;;;;;;10.27;6.35;;;17.10;96.90;;;;;;5030821;28;20041;-47
2021/07/22 02:28:28;;;;;;;9.27;6.55;;;17.10;96.90;;;;;;5030853;28;20100;-46
2021/07/22 02:30:54;;;;;;;8.60;5.90;;;17.10;96.90;;;;;;5030689;28;20018;-46
2021/07/22 02:33:19;;;;;;;9.38;6.45;;;17.10;96.90;;;;;;5030696;28;20096;-47
2021/07/22 02:35:45;;;;;;;8.20;6.60;;;17.20;97.00;;;;;;5033808;28;20028;-45
2021/07/22 02:38:10;;;;;;;10.32;7.13;;;17.20;97.30;;;;;;5034068;28;20034;-47
2021/07/22 02:40:36;;;;;;;14.32;5.97;;;17.20;97.00;;;;;;5034167;28;20034;-50
2021/07/22 02:43:01;;;;;;;9.82;5.53;;;17.20;97.10;;;;;;5035386;28;20398;-46
2021/07/22 02:45:27;;;;;;;11.32;6.45;;;17.00;97.20;;;;;;5034626;28;20471;-49
2021/07/22 02:47:52;;;;;;;9.73;5.80;;;17.00;97.40;;;;;;5038130;28;20057;-49
2021/07/22 02:50:18;;;;;;;8.50;5.75;;;16.90;97.60;;;;;;5038886;28;20052;-50
2021/07/22 02:52:43;;;;;;;10.20;6.82;;;16.90;97.70;;;;;;5036078;28;20021;-45
2021/07/22 02:55:09;;;;;;;8.23;6.28;;;16.80;97.80;;;;;;5034740;28;20031;-45
2021/07/22 02:57:35;;;;;;;11.05;6.22;;;16.70;97.90;;;;;;5034674;28;20120;-45
2021/07/22 03:00:00;;;;;;;11.45;6.18;;;16.80;98.30;;;;;;5034688;28;20147;-49
2021/07/22 03:02:26;;;;;;;8.60;6.55;;;16.80;98.00;;;;;;5034600;28;20487;-46
2021/07/22 03:04:51;;;;;;;7.38;5.65;;;16.80;98.00;;;;;;5034222;28;20152;-47
2021/07/22 03:07:17;;;;;;;12.88;6.22;;;16.80;98.10;;;;;;5034615;28;20312;-46
2021/07/22 03:09:42;;;;;;;9.75;6.80;;;16.70;98.10;;;;;;5033989;28;20108;-47
2021/07/22 03:12:08;;;;;;;10.70;6.55;;;16.80;98.10;;;;;;5034288;28;20571;-47
2021/07/22 03:14:33;;;;;;;7.65;6.05;;;16.80;98.10;;;;;;5034811;28;20108;-49
2021/07/22 03:16:59;;;;;;;9.55;6.07;;;16.80;98.10;;;;;;5017732;28;20087;-50
2021/07/22 03:19:25;;;;;;;9.30;6.72;;;16.80;98.10;;;;;;5035570;28;20061;-52
2021/07/22 03:21:50;;;;;;;13.63;6.72;;;16.80;98.10;;;;;;5035465;28;20032;-53
2021/07/22 03:24:16;;;;;;;10.07;6.45;;;16.70;98.30;;;;;;5035007;28;20487;-47
2021/07/22 03:26:41;;;;;;;12.57;7.07;;;16.70;98.40;;;;;;5034986;28;20479;-45
2021/07/22 03:29:07;;;;;;;13.20;7.03;;;16.70;98.70;;;;;;5033769;28;20048;-49
2021/07/22 03:31:32;;;;;;;9.85;6.22;;;16.70;98.40;;;;;;5033864;28;20482;-47
2021/07/22 03:33:58;;;;;;;14.00;6.88;;;16.70;98.50;;;;;;5033789;28;20033;-45
2021/07/22 03:36:23;;;;;;;9.75;6.75;;;16.60;98.60;;;;;;5033913;28;20394;-48
2021/07/22 03:38:49;;;;;;;8.63;5.95;;;16.60;98.70;;;;;;5033626;28;20037;-46
2021/07/22 03:41:15;;;;;;;9.55;6.68;;;16.60;98.90;;;;;;5033593;28;20025;-45
2021/07/22 03:43:41;;;;;;;9.35;6.35;;;16.60;99.00;;;;;;5033232;28;20029;-44
2021/07/22 03:46:07;;;;;;;13.15;6.65;;;16.60;99.00;;;;;;5033292;28;20026;-45
2021/07/22 03:48:32;;;;;;;16.65;7.18;;;16.50;99.10;;;;;;5033439;28;20509;-45
2021/07/22 03:50:58;;;;;;;12.43;7.20;;;16.60;99.10;;;;;;5033555;28;20025;-46
2021/07/22 03:53:23;;;;;;;8.48;7.05;;;16.50;99.20;;;;;;5033212;28;20021;-44
2021/07/22 03:55:49;;;;;;;8.52;6.93;;;16.50;99.20;;;;;;5033277;28;20099;-47
2021/07/22 03:58:14;;;;;;;13.30;7.68;;;16.50;99.20;;;;;;5033184;28;20048;-45
2021/07/22 04:00:40;;;;;;;9.77;6.25;;;16.60;99.20;;;;;;5033042;28;20057;-47
2021/07/22 04:03:05;;;;;;;9.43;6.80;;;16.50;99.30;;;;;;5033352;28;20029;-46
2021/07/22 04:05:31;;;;;;;10.13;6.63;;;16.50;99.30;;;;;;5032995;28;20544;-46
2021/07/22 04:07:57;;;;;;;11.52;7.38;;;16.50;99.30;;;;;;5033090;28;20032;-48
2021/07/22 04:10:28;;;;;;;11.43;7.28;;;16.50;99.40;;;;;;5032833;28;20387;-45
2021/07/22 04:13:01;;;;;;;12.50;7.60;;;16.50;99.50;;;;;;5032997;28;20463;-46
2021/07/22 04:15:28;;;;;;;11.05;6.65;;;16.50;99.60;;;;;;5032974;28;20083;-46
2021/07/22 04:17:54;;;;;;;9.95;7.28;;;16.50;99.70;;;;;;5032917;28;20033;-48
2021/07/22 04:20:22;;;;;;;9.88;7.05;;;16.40;99.80;;;;;;5033098;28;20030;-47
2021/07/22 04:22:48;;;;;;;9.60;6.75;;;16.40;99.80;;;;;;5032845;28;20072;-45
2021/07/22 04:25:14;;;;;;;9.00;7.22;;;16.40;99.90;;;;;;5032662;28;20083;-46
2021/07/22 04:27:40;;;;;;;9.45;6.88;;;16.40;99.70;;;;;;5032890;28;20030;-45
2021/07/22 04:30:07;;;;;;;9.98;6.25;;;16.40;99.80;;;;;;5032475;28;20027;-45
2021/07/22 04:32:32;;;;;;;10.55;7.07;;;16.50;99.90;;;;;;5032727;28;20071;-47
2021/07/22 04:34:57;;;;;;;12.68;6.43;;;16.60;99.70;;;;;;5032703;28;20029;-47
2021/07/22 04:37:23;;;;;;;10.18;7.22;;;16.60;99.70;;;;;;5032546;28;20037;-46
2021/07/22 04:39:48;;;;;;;11.70;7.32;;;16.60;99.70;;;;;;5032325;28;20039;-48
2021/07/22 04:42:14;;;;;;;11.93;6.40;;;16.50;99.90;;;;;;5014711;28;20029;-45
2021/07/22 04:44:39;;;;;;;9.50;7.55;;;16.50;99.90;;;;;;5032351;28;20097;-49
2021/07/22 04:47:05;;;;;;;13.57;6.75;;;16.50;99.90;;;;;;5032688;28;20034;-50
2021/07/22 04:49:31;;;;;;;9.85;7.68;;;16.50;99.90;;;;;;5014395;28;20029;-47
2021/07/22 04:51:59;;;;;;;9.75;6.72;;;16.50;99.90;;;;;;5032315;28;20026;-46
2021/07/22 04:54:25;;;;;;;12.25;6.95;;;16.50;99.90;;;;;;5014558;28;20495;-50
2021/07/22 04:56:51;;;;;;;11.23;7.10;;;16.50;99.90;;;;;;5032187;28;20021;-48
2021/07/22 04:59:16;;;;;;;11.40;8.00;;;16.50;99.90;;;;;;5032032;28;20022;-48
2021/07/22 05:01:42;;;;;;;11.00;6.82;;;16.50;99.90;;;;;;5029829;28;20399;-46
2021/07/22 05:04:08;;;;;;;14.88;7.03;;;16.50;99.90;;;;;;5012302;28;20390;-48
2021/07/22 05:06:34;;;;;;;11.15;6.30;;;16.50;99.90;;;;;;5011918;28;20492;-45
2021/07/22 05:09:02;;;;;;;10.05;6.43;;;16.50;99.90;;;;;;4993718;28;20033;-47
2021/07/22 05:11:29;;;;;;;10.90;7.50;;;16.50;99.90;;;;;;5012182;28;20045;-45
2021/07/22 05:13:55;;;;;;;11.00;7.40;;;16.50;99.90;;;;;;4994425;28;20026;-46
2021/07/22 05:16:22;;;;;;;9.02;6.60;;;16.60;99.90;;;;;;5012015;28;20034;-46
2021/07/22 05:18:48;;;;;;;10.50;7.15;;;16.60;99.90;;;;;;5011868;28;20030;-46
2021/07/22 05:21:13;;;;;;;15.32;7.00;;;16.70;99.90;;;;;;5011957;28;20475;-45
2021/07/22 05:23:42;;;;;;;10.18;7.13;;;16.70;99.90;;;;;;5011982;28;20035;-44
2021/07/22 05:26:10;;;;;;;12.65;7.53;;;16.70;99.90;;;;;;5012027;28;20440;-47
2021/07/22 05:28:39;;;;;;;14.35;6.97;;;16.70;99.90;;;;;;5011675;28;20014;-47
2021/07/22 05:31:10;;;;;;;12.32;6.57;;;16.80;99.90;;;;;;5011972;28;20033;-44
2021/07/22 05:33:37;;;;;;;13.18;7.50;;;16.90;99.90;;;;;;5011902;28;20089;-46
2021/07/22 05:36:07;;;;;;;9.80;7.38;;;16.90;99.90;;;;;;5011937;28;20033;-51
2021/07/22 05:38:57;;;;;;;11.75;7.25;;;17.00;99.90;;;;;;5011688;28;20026;-47
2021/07/22 05:41:22;;;;;;;14.10;7.07;;;17.00;99.90;;;;;;5011754;28;20030;-45
2021/07/22 05:43:48;;;;;;;10.50;6.85;;;17.00;99.90;;;;;;5011699;28;20057;-46
2021/07/22 05:46:18;;;;;;;8.95;6.95;;;17.00;99.90;;;;;;5011516;28;20622;-46
2021/07/22 05:48:44;;;;;;;10.50;6.68;;;17.00;99.90;;;;;;5011509;28;20022;-45
2021/07/22 05:51:09;;;;;;;7.75;5.80;;;17.00;99.90;;;;;;5011420;28;20037;-45
2021/07/22 05:53:35;;;;;;;8.80;6.07;;;17.10;99.90;;;;;;5011506;28;20071;-47
2021/07/22 05:56:00;;;;;;;11.00;7.00;;;17.30;99.90;;;;;;5011364;28;20025;-46
2021/07/22 05:58:26;;;;;;;12.18;7.00;;;17.40;99.40;;;;;;5011430;28;20095;-49
2021/07/22 06:00:52;;;;;;;9.00;6.07;;;17.40;99.40;;;;;;5011029;28;20484;-46
2021/07/22 06:03:18;;;;;;;10.75;6.97;;;17.50;99.00;;;;;;5011271;28;20034;-47
2021/07/22 06:05:44;;;;;;;17.10;7.28;;;17.60;98.80;;;;;;4993629;28;20030;-45
2021/07/22 06:08:09;;;;;;;13.35;6.60;;;17.70;98.80;;;;;;5010970;28;20026;-46
2021/07/22 06:10:41;;;;;;;10.50;6.22;;;17.70;98.60;;;;;;5011700;28;20026;-47
2021/07/22 06:13:07;;;;;;;11.23;6.75;;;17.80;98.70;;;;;;5011493;28;20539;-46
2021/07/22 06:15:33;;;;;;;10.20;6.72;;;17.90;98.50;;;;;;5011357;28;20102;-44
2021/07/22 06:17:58;;;;;;;17.40;6.78;;;18.00;98.40;;;;;;5011464;28;20036;-44
2021/07/22 06:20:24;;;;;;;8.15;5.97;;;18.00;98.40;;;;;;5010991;28;20109;-44
2021/07/22 06:22:49;;;;;;;7.55;5.95;;;18.20;98.40;;;;;;4993825;28;20116;-44
2021/07/22 06:25:15;;;;;;;9.50;5.60;;;18.30;98.70;;;;;;4993561;28;20026;-45
2021/07/22 06:27:42;;;;;;;15.70;6.60;;;18.50;97.30;;;;;;5011418;28;20092;-45
2021/07/22 06:30:08;;;;;;;8.02;6.10;;;18.70;97.10;;;;;;5011007;28;20467;-47
2021/07/22 06:32:34;;;;;;;12.90;6.45;;;18.70;97.00;;;;;;4993572;28;20025;-46
2021/07/22 06:34:59;;;;;;;11.13;6.60;;;18.80;96.70;;;;;;5011087;28;20033;-51
2021/07/22 06:37:25;;;;;;;11.25;6.28;;;18.80;96.40;;;;;;5011296;28;20487;-45
2021/07/22 06:39:50;;;;;;;9.73;6.53;;;18.90;96.10;;;;;;4993067;28;20030;-46
2021/07/22 06:42:16;;;;;;;6.95;6.25;;;19.00;95.90;;;;;;4993201;28;20029;-46
2021/07/22 06:44:41;;;;;;;7.75;6.35;;;19.00;95.90;;;;;;5010789;28;20026;-44
2021/07/22 06:47:07;;;;;;;9.18;6.50;;;19.10;95.80;;;;;;5010862;28;20663;-47
2021/07/22 06:49:32;;;;;;;7.60;6.47;;;19.10;95.50;;;;;;5010890;28;20049;-47
2021/07/22 06:51:59;;;;;;;9.95;6.32;;;19.00;96.10;;;;;;5011464;28;20026;-47
2021/07/22 06:54:25;;;;;;;8.45;6.60;;;19.10;95.80;;;;;;5011832;28;20041;-51
2021/07/22 06:56:50;;;;;;;7.57;6.10;;;19.30;95.70;;;;;;5015340;28;20383;-46
2021/07/22 06:59:16;;;;;;;8.75;6.32;;;19.30;95.50;;;;;;4996656;28;20498;-49
2021/07/22 07:01:42;;;;;;;9.82;6.75;;;19.40;95.20;;;;;;5004064;28;20018;-55
2021/07/22 07:04:07;;;;;;;13.60;7.15;;;19.50;95.10;;;;;;5018833;28;20382;-53
2021/07/22 07:06:34;;;;;;;9.98;6.38;;;19.60;94.60;;;;;;5029600;28;20537;-51
2021/07/22 07:09:00;;;;;;;8.30;6.72;;;19.70;94.90;;;;;;5027814;28;20103;-55
2021/07/22 07:11:25;;;;;;;10.10;6.72;;;19.80;94.60;;;;;;5006636;28;20026;-53
2021/07/22 07:13:51;;;;;;;12.63;7.05;;;19.90;94.80;;;;;;5021727;28;20097;-51
2021/07/22 07:16:16;;;;;;;7.55;6.75;;;19.90;93.90;;;;;;5013863;28;20568;-51
2021/07/22 07:18:42;;;;;;;9.82;6.68;;;19.90;93.90;;;;;;5017109;28;20079;-57
2021/07/22 07:21:07;;;;;;;8.75;6.70;;;19.90;93.90;;;;;;5024138;28;20080;-60
2021/07/22 07:23:33;;;;;;;10.85;7.95;;;20.00;93.80;;;;;;5009725;28;20038;-56
2021/07/22 07:26:00;;;;;;;11.55;6.25;;;20.00;94.00;;;;;;5015735;28;20030;-60
2021/07/22 07:28:26;;;;;;;9.45;7.68;;;20.10;94.20;;;;;;5000490;28;20037;-51
2021/07/22 07:30:51;;;;;;;11.93;7.35;;;20.20;94.30;;;;;;5020036;28;20484;-58
2021/07/22 07:33:17;;;;;;;7.60;6.25;;;20.30;93.80;;;;;;5008613;28;20491;-56
2021/07/22 07:35:42;;;;;;;9.25;6.93;;;20.30;94.00;;;;;;5032888;28;20037;-56
2021/07/22 07:38:08;;;;;;;11.35;8.23;;;20.40;94.20;;;;;;5033052;28;20105;-62
2021/07/22 07:40:34;;;;;;;8.98;7.05;;;20.50;93.50;;;;;;5032638;28;20057;-62
2021/07/22 07:42:59;;;;;;;11.35;6.68;;;20.60;93.10;;;;;;5034161;28;20033;-55
2021/07/22 07:45:25;;;;;;;10.70;7.30;;;20.70;93.00;;;;;;5032544;28;20025;-50
2021/07/22 07:47:51;;;;;;;9.23;6.65;;;20.90;93.00;;;;;;5033123;28;20551;-54
2021/07/22 07:50:17;;;;;;;9.52;6.40;;;21.40;93.00;;;;;;5032641;28;20124;-55
2021/07/22 07:52:43;;;;;;;11.27;6.78;;;22.10;91.80;;;;;;5032421;28;20105;-54
2021/07/22 07:55:10;;;;;;;7.50;6.55;;;23.00;89.80;;;;;;5033077;28;20033;-58
2021/07/22 07:57:35;;;;;;;11.55;6.85;;;23.80;87.80;;;;;;5032619;28;20104;-55
2021/07/22 08:00:01;;;;;;;8.52;6.25;;;24.30;85.00;;;;;;5032632;28;20124;-60
2021/07/22 08:02:26;;;;;;;6.60;6.00;;;24.70;84.20;;;;;;5035589;28;20037;-64
2021/07/22 08:04:55;;;;;;;10.90;6.35;;;25.30;82.40;;;;;;5015590;28;20029;-57
2021/07/22 08:07:20;;;;;;;7.93;5.97;;;25.70;81.60;;;;;;5032243;28;20025;-52
2021/07/22 08:09:47;;;;;;;12.95;6.50;;;26.40;80.60;;;;;;5032871;28;20022;-59
2021/07/22 08:12:13;;;;;;;12.50;7.00;;;26.60;77.20;;;;;;5032308;28;20025;-53
2021/07/22 08:14:39;;;;;;;12.60;6.78;;;26.70;77.70;;;;;;5032061;28;20048;-54
2021/07/22 08:17:05;;;;;;;7.22;6.05;;;27.30;76.50;;;;;;5032555;28;20403;-56
2021/07/22 08:19:31;;;;;;;9.15;5.80;;;27.80;74.10;;;;;;5032199;28;20041;-53
2021/07/22 08:21:57;;;;;;;6.68;5.18;;;28.20;73.10;;;;;;5031533;28;20029;-50
2021/07/22 08:24:22;;;;;;;6.38;5.70;;;28.70;71.90;;;;;;5032066;28;20025;-55
2021/07/22 08:26:48;;;;;;;11.95;5.88;;;28.60;71.50;;;;;;5032657;28;20089;-50
2021/07/22 08:29:13;;;;;;;6.82;5.85;;;29.10;72.10;;;;;;5031654;28;20057;-49
2021/07/22 08:31:39;;;;;;;8.00;5.47;;;29.50;69.40;;;;;;5031630;28;20030;-52
2021/07/22 08:34:05;;;;;;;11.38;6.50;;;29.30;69.10;;;;;;5031330;28;20034;-49
2021/07/22 08:36:30;;;;;;;14.52;6.35;;;29.30;69.20;;;;;;5031807;28;20029;-50
2021/07/22 08:38:56;;;;;;;9.00;5.53;;;29.30;70.40;;;;;;5031424;28;20053;-53
2021/07/22 08:41:21;;;;;;;7.47;5.85;;;29.30;70.60;;;;;;5032082;28;20064;-52
2021/07/22 08:43:50;;;;;;;6.40;5.70;;;29.10;69.70;;;;;;5030886;28;20033;-49
2021/07/22 08:46:17;;;;;;;8.50;5.93;;;28.50;70.00;;;;;;5031872;28;20033;-50
2021/07/22 08:48:43;;;;;;;7.68;6.05;;;28.00;70.00;;;;;;5030541;28;20109;-51
2021/07/22 08:51:09;;;;;;;10.05;5.32;;;27.30;72.90;;;;;;5013534;28;20025;-50
2021/07/22 08:53:35;;;;;;;10.35;6.35;;;27.10;73.60;;;;;;5032121;28;20030;-60
2021/07/22 08:56:02;;;;;;;8.93;5.65;;;26.70;73.20;;;;;;5032111;28;20144;-60
2021/07/22 08:58:28;;;;;;;17.45;14.23;;;26.30;74.00;;;;;;5031613;28;20083;-60
2021/07/22 09:00:55;;;;;;;12.90;6.00;;;26.20;74.60;;;;;;5031043;28;20029;-62
2021/07/22 09:03:21;;;;;;;7.97;6.35;;;25.90;74.70;;;;;;5013680;28;20028;-61
2021/07/22 09:05:46;;;;;;;11.75;6.15;;;25.90;77.10;;;;;;5030974;28;20029;-62
2021/07/22 09:08:13;;;;;;;6.82;5.90;;;25.30;76.60;;;;;;5031274;28;20045;-61
2021/07/22 09:10:39;;;;;;;9.07;6.20;;;25.10;76.90;;;;;;5012797;28;20478;-53
2021/07/22 09:13:21;;;;;;;7.05;5.70;;;25.10;77.80;;;;;;5031331;28;20025;-49
2021/07/22 09:15:52;;;;;;;8.68;5.53;;;25.00;78.00;;;;;;5029850;28;20037;-52
2021/07/22 09:18:25;;;;;;;8.73;5.82;;;25.30;76.50;;;;;;5038351;28;20453;-51
2021/07/22 09:20:52;;;;;;;5.72;5.13;;;25.50;77.80;;;;;;5029246;28;20407;-52
2021/07/22 09:23:25;;;;;;;6.95;4.80;;;25.70;75.70;;;;;;5031195;28;20368;-51
2021/07/22 09:25:52;;;;;;;7.50;5.15;;;25.80;75.10;;;;;;5030761;28;20057;-60
2021/07/22 09:28:20;;;;;;;10.02;6.18;;;25.80;74.30;;;;;;5030988;28;20025;-61
2021/07/22 09:31:00;;;;;;;9.85;5.38;;;25.70;74.40;;;;;;5030402;28;20027;-56
2021/07/22 09:33:32;;;;;;;8.32;5.82;;;25.50;74.20;;;;;;5031247;28;20121;-54
2021/07/22 09:35:58;;;;;;;6.88;6.15;;;25.30;73.90;;;;;;5030663;28;20095;-63
2021/07/22 09:38:26;;;;;;;8.43;6.03;;;25.40;76.00;;;;;;5030769;28;20029;-63
2021/07/22 09:40:52;;;;;;;7.25;6.55;;;25.40;72.50;;;;;;5031209;28;20030;-56
2021/07/22 09:43:35;;;;;;;11.52;6.40;;;25.30;73.70;;;;;;5031161;28;20084;-53
2021/07/22 09:46:00;;;;;;;9.07;6.57;;;25.00;73.50;;;;;;5025192;28;20034;-51
2021/07/22 09:48:26;;;;;;;10.38;8.15;;;25.10;73.90;;;;;;5013255;28;20018;-51
2021/07/22 09:50:52;;;;;;;11.02;6.90;;;25.20;68.60;;;;;;5030229;28;20100;-58
2021/07/22 09:53:20;;;;;;;12.55;7.18;;;25.00;70.50;;;;;;5029259;28;20025;-53
2021/07/22 09:55:45;;;;;;;10.38;6.45;;;25.00;71.80;;;;;;5028038;28;20021;-53
2021/07/22 09:58:12;;;;;;;9.48;7.20;;;25.20;71.10;;;;;;5027638;28;20454;-55
2021/07/22 10:00:46;;;;;;;6.55;5.72;;;25.30;71.20;;;;;;5030840;28;20087;-54
2021/07/22 10:03:16;;;;;;;7.35;6.50;;;25.30;72.10;;;;;;5011342;28;20501;-58
2021/07/22 10:05:48;;;;;;;8.80;7.18;;;25.40;70.50;;;;;;5014882;28;20500;-56
2021/07/22 10:08:23;;;;;;;29.17;8.00;;;25.50;71.50;;;;;;5019544;28;20108;-59
2021/07/22 10:10:53;;;;;;;12.63;7.13;;;25.50;69.80;;;;;;5012935;28;20056;-57
2021/07/22 10:13:30;;;;;;;10.98;7.00;;;25.20;70.00;;;;;;5029186;28;20438;-54
2021/07/22 10:15:57;;;;;;;9.15;7.07;;;25.10;70.10;;;;;;5030591;28;20554;-57
2021/07/22 10:18:26;;;;;;;11.05;6.55;;;24.80;71.20;;;;;;5021663;28;20099;-54
2021/07/22 10:20:56;;;;;;;9.38;7.25;;;24.80;71.30;;;;;;5010676;28;20025;-57
2021/07/22 10:23:23;;;;;;;8.48;6.25;;;24.80;72.00;;;;;;5018685;28;20034;-57
2021/07/22 10:25:50;;;;;;;7.93;6.30;;;24.90;71.30;;;;;;5030379;28;20552;-52
2021/07/22 10:28:16;;;;;;;8.45;6.45;;;24.90;70.40;;;;;;5023361;28;20026;-56
2021/07/22 10:30:43;;;;;;;10.13;6.25;;;24.90;70.50;;;;;;5010297;28;20296;-55
2021/07/22 10:33:08;;;;;;;6.10;5.50;;;24.80;71.00;;;;;;4993921;28;20062;-54
2021/07/22 10:35:35;;;;;;;10.25;6.00;;;24.90;70.60;;;;;;5010718;28;20460;-56
2021/07/22 10:38:04;;;;;;;6.32;5.72;;;25.10;69.80;;;;;;4996401;28;20029;-57
2021/07/22 10:40:51;;;;;;;7.82;6.57;;;25.20;71.00;;;;;;5030227;28;20049;-51
2021/07/22 10:43:42;;;;;;;5.90;5.22;;;25.30;71.10;;;;;;5028608;28;20047;-54
2021/07/22 10:46:14;;;;;;;7.95;5.55;;;25.30;71.10;;;;;;5030343;28;20032;-51
2021/07/22 10:48:41;;;;;;;6.93;6.22;;;25.20;71.20;;;;;;5022269;28;20033;-52
2021/07/22 10:51:11;;;;;;;6.10;5.50;;;25.00;70.90;;;;;;5012245;28;20084;-56
2021/07/22 10:53:37;;;;;;;8.48;6.05;;;24.90;72.00;;;;;;5011992;28;20026;-55
2021/07/22 10:56:03;;;;;;;9.07;6.28;;;25.00;70.70;;;;;;5010394;28;20026;-52
2021/07/22 10:58:33;;;;;;;7.90;6.22;;;24.80;70.60;;;;;;5015698;28;20096;-50
2021/07/22 11:00:59;;;;;;;8.73;6.82;;;24.90;71.90;;;;;;5030522;28;20399;-52
2021/07/22 11:03:34;;;;;;;7.90;6.88;;;25.10;70.90;;;;;;5028374;28;20414;-51
2021/07/22 11:06:01;;;;;;;7.03;6.20;;;25.00;71.30;;;;;;5030441;28;20032;-52
2021/07/22 11:08:29;;;;;;;11.68;6.40;;;25.10;70.40;;;;;;5029309;28;20306;-59
2021/07/22 11:10:56;;;;;;;7.07;5.93;;;25.10;70.80;;;;;;5014389;28;20021;-56
2021/07/22 11:13:36;;;;;;;7.03;5.53;;;25.20;71.50;;;;;;5016898;28;20388;-52
2021/07/22 11:16:29;;;;;;;13.93;6.70;;;25.40;70.00;;;;;;5034087;28;20041;-55
2021/07/22 11:18:57;;;;;;;6.57;5.80;;;25.40;70.70;;;;;;5031902;28;20068;-54
2021/07/22 11:21:27;;;;;;;8.73;6.85;;;25.50;70.20;;;;;;5034010;28;20029;-56
2021/07/22 11:24:00;;;;;;;9.73;6.88;;;25.30;71.40;;;;;;5028065;28;20387;-55
2021/07/22 11:26:28;;;;;;;8.15;6.65;;;25.30;69.30;;;;;;5014139;28;20030;-55
2021/07/22 11:28:54;;;;;;;9.95;7.22;;;25.30;71.80;;;;;;5015538;28;20214;-55
2021/07/22 11:31:20;;;;;;;8.35;6.43;;;25.30;69.80;;;;;;5014194;28;20408;-53
2021/07/22 11:33:46;;;;;;;9.55;6.75;;;25.30;68.00;;;;;;5000244;28;20022;-51
2021/07/22 11:36:22;;;;;;;6.30;5.70;;;25.20;67.70;;;;;;5033377;28;20376;-54
2021/07/22 11:38:51;;;;;;;7.57;6.18;;;25.20;68.80;;;;;;5016615;28;20110;-49
2021/07/22 11:41:17;;;;;;;7.60;6.50;;;25.20;70.00;;;;;;5014519;28;20460;-50
2021/07/22 11:43:52;;;;;;;7.32;6.22;;;25.40;69.70;;;;;;5015100;28;20057;-49
2021/07/22 11:46:33;;;;;;;;;;;25.50;70.10;;;;;;5014464;28;20033;-53
2021/07/22 11:49:14;;;;;;;9.07;5.93;;;25.50;71.10;;;;;;5030555;28;19948;-55
2021/07/22 11:51:48;;;;;;;7.32;6.22;;;25.50;72.70;;;;;;5033565;28;20398;-57
2021/07/22 11:54:17;;;;;;;9.10;6.88;;;25.60;70.30;;;;;;5031674;28;20030;-56
2021/07/22 11:56:45;;;;;;;8.73;7.07;;;25.60;71.50;;;;;;5033362;28;20032;-53
2021/07/22 11:59:11;;;;;;;11.63;6.82;;;25.60;69.80;;;;;;4996274;28;20415;-56
2021/07/22 12:01:46;;;;;;;7.80;6.18;;;25.60;70.90;;;;;;5013661;28;20034;-56
2021/07/22 12:04:12;;;;;;;7.95;6.68;;;25.50;70.40;;;;;;5032475;28;20052;-58
2021/07/22 12:06:38;;;;;;;12.05;7.72;;;25.40;69.10;;;;;;5014725;28;20099;-56
2021/07/22 12:09:08;;;;;;;8.88;7.07;;;25.40;70.20;;;;;;5032935;28;20491;-55
2021/07/22 12:11:51;;;;;;;10.80;7.97;;;25.50;69.10;;;;;;5029628;28;20148;-53
2021/07/22 12:14:28;;;;;;;9.18;6.70;;;25.60;69.10;;;;;;5013019;28;20042;-51
2021/07/22 12:16:55;;;;;;;8.65;6.97;;;25.60;71.70;;;;;;5014279;28;20022;-50
2021/07/22 12:19:25;;;;;;;9.75;7.78;;;25.60;69.60;;;;;;5015688;28;20026;-53
2021/07/22 12:22:21;;;;;;;7.53;6.72;;;25.50;70.00;;;;;;5028960;28;20017;-56
2021/07/22 12:24:47;;;;;;;;;;;25.50;70.60;;;;;;4992955;28;20038;-58
2021/07/22 12:27:31;;;;;;;11.00;6.70;;;25.50;70.80;;;;;;5015043;28;19992;-55
2021/07/22 12:29:58;;;;;;;13.82;7.68;;;25.60;69.80;;;;;;5015314;28;20033;-56
2021/07/22 12:32:24;;;;;;;8.43;7.53;;;25.60;69.80;;;;;;5032588;28;20079;-52
2021/07/22 12:34:50;;;;;;;8.45;7.53;;;25.70;67.70;;;;;;5016844;28;20026;-53
2021/07/22 12:37:16;;;;;;;9.80;7.20;;;25.80;67.90;;;;;;5012805;28;20541;-57
2021/07/22 12:39:41;;;;;;;9.57;7.25;;;25.80;69.20;;;;;;5013629;28;20025;-54
2021/07/22 12:42:11;;;;;;;7.95;7.13;;;25.70;68.60;;;;;;5012973;28;20029;-52